sensor_id;sensor_type;location;lat;lon;timestamp;P1;durP1;ratioP1;P2;durP2;ratioP2
71937;SDS011;59810;48.800;9.086;2022-09-16T00:01:20;9.33;;;3.00;;
71937;SDS011;59810;48.800;9.086;2022-09-16T00:03:46;8.93;;;3.85;;
71937;SDS011;59810;48.800;9.086;2022-09-16T00:06:30;9.33;;;3.83;;
71937;SDS011;59810;48.800;9.086;2022-09-16T00:08:58;7.93;;;3.50;;
71937;SDS011;59810;48.800;9.086;2022-09-16T00:11:27;8.30;;;3.33;;
71937;SDS011;59810;48.800;9.086;2022-09-16T00:13:57;9.38;;;3.80;;
71937;SDS011;59810;48.800;9.086;2022-09-16T00:16:24;8.13;;;4.33;;
71937;SDS011;59810;48.800;9.086;2022-09-16T00:18:54;9.18;;;4.10;;
71937;SDS011;59810;48.800;9.086;2022-09-16T00:21:22;7.70;;;3.90;;
71937;SDS011;59810;48.800;9.086;2022-09-16T00:23:50;8.07;;;3.90;;
71937;SDS011;59810;48.800;9.086;2022-09-16T00:26:16;10.02;;;4.05;;
71937;SDS011;59810;48.800;9.086;2022-09-16T00:28:42;10.65;;;4.13;;
71937;SDS011;59810;48.800;9.086;2022-09-16T00:31:08;8.82;;;3.80;;
71937;SDS011;59810;48.800;9.086;2022-09-16T00:33:33;8.10;;;4.27;;
71937;SDS011;59810;48.800;9.086;2022-09-16T00:36:12;7.85;;;3.92;;
71937;SDS011;59810;48.800;9.086;2022-09-16T00:38:39;8.30;;;3.88;;
71937;SDS011;59810;48.800;9.086;2022-09-16T00:41:05;8.13;;;3.47;;
71937;SDS011;59810;48.800;9.086;2022-09-16T00:46:11;8.70;;;3.97;;
71937;SDS011;59810;48.800;9.086;2022-09-16T00:48:37;9.67;;;3.80;;
71937;SDS011;59810;48.800;9.086;2022-09-16T00:51:06;9.85;;;3.53;;
71937;SDS011;59810;48.800;9.086;2022-09-16T00:53:36;9.50;;;4.22;;
71937;SDS011;59810;48.800;9.086;2022-09-16T00:56:08;10.43;;;4.05;;
71937;SDS011;59810;48.800;9.086;2022-09-16T00:58:42;7.77;;;3.97;;
71937;SDS011;59810;48.800;9.086;2022-09-16T01:01:11;8.27;;;4.03;;
71937;SDS011;59810;48.800;9.086;2022-09-16T01:03:39;10.17;;;4.07;;
71937;SDS011;59810;48.800;9.086;2022-09-16T01:06:09;9.03;;;4.63;;
71937;SDS011;59810;48.800;9.086;2022-09-16T01:08:35;9.82;;;3.85;;
71937;SDS011;59810;48.800;9.086;2022-09-16T01:11:01;8.37;;;3.60;;
71937;SDS011;59810;48.800;9.086;2022-09-16T01:13:28;8.20;;;3.25;;
71937;SDS011;59810;48.800;9.086;2022-09-16T01:21:37;6.72;;;3.33;;
71937;SDS011;59810;48.800;9.086;2022-09-16T01:29:34;8.60;;;3.57;;
71937;SDS011;59810;48.800;9.086;2022-09-16T01:32:15;7.47;;;3.47;;
71937;SDS011;59810;48.800;9.086;2022-09-16T01:37:36;9.38;;;3.92;;
71937;SDS011;59810;48.800;9.086;2022-09-16T01:43:43;7.60;;;3.70;;
71937;SDS011;59810;48.800;9.086;2022-09-16T01:52:23;8.90;;;3.45;;
71937;SDS011;59810;48.800;9.086;2022-09-16T01:55:00;10.93;;;4.07;;
71937;SDS011;59810;48.800;9.086;2022-09-16T02:00:27;8.68;;;3.40;;
71937;SDS011;59810;48.800;9.086;2022-09-16T02:03:03;8.30;;;3.60;;
71937;SDS011;59810;48.800;9.086;2022-09-16T02:05:39;7.05;;;3.20;;
71937;SDS011;59810;48.800;9.086;2022-09-16T02:08:19;7.15;;;3.15;;
71937;SDS011;59810;48.800;9.086;2022-09-16T02:10:51;8.93;;;3.33;;
71937;SDS011;59810;48.800;9.086;2022-09-16T02:16:07;8.45;;;3.65;;
71937;SDS011;59810;48.800;9.086;2022-09-16T02:18:39;7.80;;;2.78;;
71937;SDS011;59810;48.800;9.086;2022-09-16T02:21:10;6.25;;;2.67;;
71937;SDS011;59810;48.800;9.086;2022-09-16T02:23:44;9.53;;;2.90;;
71937;SDS011;59810;48.800;9.086;2022-09-16T02:26:13;10.98;;;2.60;;
71937;SDS011;59810;48.800;9.086;2022-09-16T02:28:46;6.57;;;2.80;;
71937;SDS011;59810;48.800;9.086;2022-09-16T02:31:14;5.65;;;2.35;;
71937;SDS011;59810;48.800;9.086;2022-09-16T02:33:44;6.97;;;2.28;;
71937;SDS011;59810;48.800;9.086;2022-09-16T02:36:18;7.77;;;2.57;;
71937;SDS011;59810;48.800;9.086;2022-09-16T02:38:47;7.13;;;2.55;;
71937;SDS011;59810;48.800;9.086;2022-09-16T02:41:18;5.63;;;2.55;;
71937;SDS011;59810;48.800;9.086;2022-09-16T02:43:44;6.07;;;2.60;;
71937;SDS011;59810;48.800;9.086;2022-09-16T02:51:30;5.78;;;2.70;;
71937;SDS011;59810;48.800;9.086;2022-09-16T02:54:02;6.22;;;2.30;;
71937;SDS011;59810;48.800;9.086;2022-09-16T02:56:33;4.95;;;1.92;;
71937;SDS011;59810;48.800;9.086;2022-09-16T02:59:02;6.30;;;1.93;;
71937;SDS011;59810;48.800;9.086;2022-09-16T03:01:30;8.98;;;2.20;;
71937;SDS011;59810;48.800;9.086;2022-09-16T03:03:59;5.82;;;2.22;;
71937;SDS011;59810;48.800;9.086;2022-09-16T03:06:26;6.77;;;2.27;;
71937;SDS011;59810;48.800;9.086;2022-09-16T03:08:53;6.93;;;2.50;;
71937;SDS011;59810;48.800;9.086;2022-09-16T03:21:52;10.63;;;2.33;;
71937;SDS011;59810;48.800;9.086;2022-09-16T03:27:31;5.30;;;2.00;;
71937;SDS011;59810;48.800;9.086;2022-09-16T03:30:07;6.57;;;1.95;;
71937;SDS011;59810;48.800;9.086;2022-09-16T03:32:40;7.53;;;2.20;;
71937;SDS011;59810;48.800;9.086;2022-09-16T03:35:09;7.63;;;1.90;;
71937;SDS011;59810;48.800;9.086;2022-09-16T03:37:43;5.32;;;1.95;;
71937;SDS011;59810;48.800;9.086;2022-09-16T03:40:11;6.80;;;2.05;;
71937;SDS011;59810;48.800;9.086;2022-09-16T03:42:39;6.82;;;2.00;;
71937;SDS011;59810;48.800;9.086;2022-09-16T03:45:06;6.85;;;1.75;;
71937;SDS011;59810;48.800;9.086;2022-09-16T03:47:32;8.03;;;1.83;;
71937;SDS011;59810;48.800;9.086;2022-09-16T03:49:58;5.65;;;2.00;;
71937;SDS011;59810;48.800;9.086;2022-09-16T03:52:23;6.87;;;1.73;;
71937;SDS011;59810;48.800;9.086;2022-09-16T03:54:49;4.83;;;1.80;;
71937;SDS011;59810;48.800;9.086;2022-09-16T03:57:16;6.43;;;1.80;;
71937;SDS011;59810;48.800;9.086;2022-09-16T03:59:41;5.23;;;1.50;;
71937;SDS011;59810;48.800;9.086;2022-09-16T04:02:09;7.22;;;1.88;;
71937;SDS011;59810;48.800;9.086;2022-09-16T04:04:34;5.07;;;1.83;;
71937;SDS011;59810;48.800;9.086;2022-09-16T04:07:00;6.90;;;1.97;;
71937;SDS011;59810;48.800;9.086;2022-09-16T04:09:28;6.18;;;2.00;;
71937;SDS011;59810;48.800;9.086;2022-09-16T04:11:53;7.77;;;1.83;;
71937;SDS011;59810;48.800;9.086;2022-09-16T04:14:18;7.27;;;2.17;;
71937;SDS011;59810;48.800;9.086;2022-09-16T04:16:46;5.80;;;2.17;;
71937;SDS011;59810;48.800;9.086;2022-09-16T04:19:11;5.90;;;2.17;;
71937;SDS011;59810;48.800;9.086;2022-09-16T04:21:40;5.57;;;2.05;;
71937;SDS011;59810;48.800;9.086;2022-09-16T04:24:06;5.57;;;1.88;;
71937;SDS011;59810;48.800;9.086;2022-09-16T04:26:33;8.57;;;2.22;;
71937;SDS011;59810;48.800;9.086;2022-09-16T04:28:58;5.87;;;1.90;;
71937;SDS011;59810;48.800;9.086;2022-09-16T04:31:23;6.13;;;1.70;;
71937;SDS011;59810;48.800;9.086;2022-09-16T04:33:49;6.43;;;2.00;;
71937;SDS011;59810;48.800;9.086;2022-09-16T04:36:16;4.65;;;1.70;;
71937;SDS011;59810;48.800;9.086;2022-09-16T04:38:45;7.78;;;2.40;;
71937;SDS011;59810;48.800;9.086;2022-09-16T04:41:18;6.27;;;2.40;;
71937;SDS011;59810;48.800;9.086;2022-09-16T04:43:45;5.97;;;2.38;;
71937;SDS011;59810;48.800;9.086;2022-09-16T04:46:16;5.55;;;1.83;;
71937;SDS011;59810;48.800;9.086;2022-09-16T04:48:41;6.90;;;1.90;;
71937;SDS011;59810;48.800;9.086;2022-09-16T04:51:07;6.83;;;2.30;;
71937;SDS011;59810;48.800;9.086;2022-09-16T04:53:35;7.10;;;2.40;;
71937;SDS011;59810;48.800;9.086;2022-09-16T04:56:02;7.35;;;2.00;;
71937;SDS011;59810;48.800;9.086;2022-09-16T04:58:32;8.35;;;2.42;;
71937;SDS011;59810;48.800;9.086;2022-09-16T05:01:02;5.87;;;2.33;;
71937;SDS011;59810;48.800;9.086;2022-09-16T05:03:28;5.40;;;2.00;;
71937;SDS011;59810;48.800;9.086;2022-09-16T05:06:02;6.15;;;1.90;;
71937;SDS011;59810;48.800;9.086;2022-09-16T05:08:32;4.90;;;1.73;;
71937;SDS011;59810;48.800;9.086;2022-09-16T05:11:03;6.68;;;2.30;;
71937;SDS011;59810;48.800;9.086;2022-09-16T05:13:30;5.82;;;2.20;;
71937;SDS011;59810;48.800;9.086;2022-09-16T05:15:59;9.77;;;2.40;;
71937;SDS011;59810;48.800;9.086;2022-09-16T05:18:28;6.80;;;2.47;;
71937;SDS011;59810;48.800;9.086;2022-09-16T05:20:56;5.93;;;2.00;;
71937;SDS011;59810;48.800;9.086;2022-09-16T05:23:22;6.07;;;1.90;;
71937;SDS011;59810;48.800;9.086;2022-09-16T05:25:48;5.53;;;1.93;;
71937;SDS011;59810;48.800;9.086;2022-09-16T05:28:13;5.40;;;1.87;;
71937;SDS011;59810;48.800;9.086;2022-09-16T05:30:41;5.82;;;1.90;;
71937;SDS011;59810;48.800;9.086;2022-09-16T05:33:06;5.97;;;2.23;;
71937;SDS011;59810;48.800;9.086;2022-09-16T05:35:31;6.70;;;2.37;;
71937;SDS011;59810;48.800;9.086;2022-09-16T05:37:59;6.93;;;3.08;;
71937;SDS011;59810;48.800;9.086;2022-09-16T05:40:24;6.67;;;2.30;;
71937;SDS011;59810;48.800;9.086;2022-09-16T05:42:51;9.75;;;3.17;;
71937;SDS011;59810;48.800;9.086;2022-09-16T05:45:17;10.53;;;3.20;;
71937;SDS011;59810;48.800;9.086;2022-09-16T05:47:46;5.63;;;2.42;;
71937;SDS011;59810;48.800;9.086;2022-09-16T05:50:14;6.63;;;2.88;;
71937;SDS011;59810;48.800;9.086;2022-09-16T05:52:39;7.77;;;2.50;;
71937;SDS011;59810;48.800;9.086;2022-09-16T05:55:05;6.87;;;2.50;;
71937;SDS011;59810;48.800;9.086;2022-09-16T05:57:30;6.00;;;2.33;;
71937;SDS011;59810;48.800;9.086;2022-09-16T05:59:56;9.53;;;2.47;;
71937;SDS011;59810;48.800;9.086;2022-09-16T06:02:24;8.90;;;3.10;;
71937;SDS011;59810;48.800;9.086;2022-09-16T06:04:49;8.13;;;2.60;;
71937;SDS011;59810;48.800;9.086;2022-09-16T06:07:17;6.95;;;3.00;;
71937;SDS011;59810;48.800;9.086;2022-09-16T06:09:45;5.23;;;2.57;;
71937;SDS011;59810;48.800;9.086;2022-09-16T06:12:11;8.25;;;3.10;;
71937;SDS011;59810;48.800;9.086;2022-09-16T06:14:36;6.77;;;2.90;;
71937;SDS011;59810;48.800;9.086;2022-09-16T06:17:01;5.80;;;2.50;;
71937;SDS011;59810;48.800;9.086;2022-09-16T06:19:27;7.03;;;2.90;;
71937;SDS011;59810;48.800;9.086;2022-09-16T06:21:53;8.23;;;2.77;;
71937;SDS011;59810;48.800;9.086;2022-09-16T06:24:19;11.53;;;3.27;;
71937;SDS011;59810;48.800;9.086;2022-09-16T06:26:45;9.35;;;3.08;;
71937;SDS011;59810;48.800;9.086;2022-09-16T06:29:14;5.50;;;2.50;;
71937;SDS011;59810;48.800;9.086;2022-09-16T06:31:40;6.07;;;2.50;;
71937;SDS011;59810;48.800;9.086;2022-09-16T06:34:06;8.50;;;3.38;;
71937;SDS011;59810;48.800;9.086;2022-09-16T06:36:36;7.57;;;2.70;;
71937;SDS011;59810;48.800;9.086;2022-09-16T06:39:03;7.63;;;2.65;;
71937;SDS011;59810;48.800;9.086;2022-09-16T06:41:31;10.50;;;3.20;;
71937;SDS011;59810;48.800;9.086;2022-09-16T06:43:58;7.43;;;2.90;;
71937;SDS011;59810;48.800;9.086;2022-09-16T06:46:24;7.70;;;3.27;;
71937;SDS011;59810;48.800;9.086;2022-09-16T06:48:52;9.70;;;2.90;;
71937;SDS011;59810;48.800;9.086;2022-09-16T06:51:27;8.65;;;3.60;;
71937;SDS011;59810;48.800;9.086;2022-09-16T06:53:59;7.45;;;2.65;;
71937;SDS011;59810;48.800;9.086;2022-09-16T06:56:28;7.47;;;3.15;;
71937;SDS011;59810;48.800;9.086;2022-09-16T06:58:54;10.52;;;3.50;;
71937;SDS011;59810;48.800;9.086;2022-09-16T07:01:26;10.40;;;3.67;;
71937;SDS011;59810;48.800;9.086;2022-09-16T07:03:53;8.52;;;3.75;;
71937;SDS011;59810;48.800;9.086;2022-09-16T07:06:21;8.05;;;3.35;;
71937;SDS011;59810;48.800;9.086;2022-09-16T07:08:47;9.38;;;3.60;;
71937;SDS011;59810;48.800;9.086;2022-09-16T07:11:14;8.30;;;3.80;;
71937;SDS011;59810;48.800;9.086;2022-09-16T07:13:43;8.00;;;3.70;;
71937;SDS011;59810;48.800;9.086;2022-09-16T07:16:12;9.60;;;3.80;;
71937;SDS011;59810;48.800;9.086;2022-09-16T07:18:41;7.90;;;3.15;;
71937;SDS011;59810;48.800;9.086;2022-09-16T07:23:40;10.10;;;3.10;;
71937;SDS011;59810;48.800;9.086;2022-09-16T07:26:28;8.63;;;3.45;;
71937;SDS011;59810;48.800;9.086;2022-09-16T07:29:15;8.63;;;3.55;;
71937;SDS011;59810;48.800;9.086;2022-09-16T07:32:01;10.77;;;4.18;;
71937;SDS011;59810;48.800;9.086;2022-09-16T07:34:45;12.40;;;4.00;;
71937;SDS011;59810;48.800;9.086;2022-09-16T07:37:11;11.45;;;4.50;;
71937;SDS011;59810;48.800;9.086;2022-09-16T07:39:37;9.05;;;3.95;;
71937;SDS011;59810;48.800;9.086;2022-09-16T07:42:03;9.87;;;3.80;;
71937;SDS011;59810;48.800;9.086;2022-09-16T07:44:28;11.93;;;3.70;;
71937;SDS011;59810;48.800;9.086;2022-09-16T07:46:54;8.82;;;3.58;;
71937;SDS011;59810;48.800;9.086;2022-09-16T07:49:19;11.17;;;4.20;;
71937;SDS011;59810;48.800;9.086;2022-09-16T07:51:45;8.63;;;3.93;;
71937;SDS011;59810;48.800;9.086;2022-09-16T07:54:12;12.25;;;4.80;;
71937;SDS011;59810;48.800;9.086;2022-09-16T07:56:39;10.63;;;4.00;;
71937;SDS011;59810;48.800;9.086;2022-09-16T07:59:10;7.88;;;3.83;;
71937;SDS011;59810;48.800;9.086;2022-09-16T08:01:37;10.73;;;3.97;;
71937;SDS011;59810;48.800;9.086;2022-09-16T08:04:03;11.20;;;4.57;;
71937;SDS011;59810;48.800;9.086;2022-09-16T08:06:35;12.27;;;5.55;;
71937;SDS011;59810;48.800;9.086;2022-09-16T08:09:02;13.75;;;5.53;;
71937;SDS011;59810;48.800;9.086;2022-09-16T08:11:30;7.20;;;3.70;;
71937;SDS011;59810;48.800;9.086;2022-09-16T08:13:58;7.87;;;3.37;;
71937;SDS011;59810;48.800;9.086;2022-09-16T08:16:32;12.77;;;4.18;;
71937;SDS011;59810;48.800;9.086;2022-09-16T08:18:57;7.20;;;3.57;;
71937;SDS011;59810;48.800;9.086;2022-09-16T08:21:27;10.95;;;4.57;;
71937;SDS011;59810;48.800;9.086;2022-09-16T08:23:56;10.27;;;4.30;;
71937;SDS011;59810;48.800;9.086;2022-09-16T08:26:34;11.88;;;4.45;;
71937;SDS011;59810;48.800;9.086;2022-09-16T08:29:41;8.50;;;3.90;;
71937;SDS011;59810;48.800;9.086;2022-09-16T08:36:01;8.35;;;3.17;;
71937;SDS011;59810;48.800;9.086;2022-09-16T08:38:42;7.47;;;3.73;;
71937;SDS011;59810;48.800;9.086;2022-09-16T08:52:22;9.40;;;3.67;;
71937;SDS011;59810;48.800;9.086;2022-09-16T08:54:55;7.47;;;3.07;;
71937;SDS011;59810;48.800;9.086;2022-09-16T08:57:25;7.28;;;3.08;;
71937;SDS011;59810;48.800;9.086;2022-09-16T08:59:59;9.05;;;3.30;;
71937;SDS011;59810;48.800;9.086;2022-09-16T09:05:01;7.93;;;2.90;;
71937;SDS011;59810;48.800;9.086;2022-09-16T09:10:17;10.77;;;3.38;;
71937;SDS011;59810;48.800;9.086;2022-09-16T09:12:55;8.45;;;3.33;;
71937;SDS011;59810;48.800;9.086;2022-09-16T09:18:09;7.38;;;2.70;;
71937;SDS011;59810;48.800;9.086;2022-09-16T09:21:28;10.47;;;3.13;;
71937;SDS011;59810;48.800;9.086;2022-09-16T09:24:03;8.48;;;3.13;;
71937;SDS011;59810;48.800;9.086;2022-09-16T09:26:48;6.95;;;3.13;;
71937;SDS011;59810;48.800;9.086;2022-09-16T09:29:27;7.05;;;2.88;;
71937;SDS011;59810;48.800;9.086;2022-09-16T09:32:08;7.22;;;2.97;;
71937;SDS011;59810;48.800;9.086;2022-09-16T09:37:31;6.75;;;3.08;;
71937;SDS011;59810;48.800;9.086;2022-09-16T09:45:27;8.20;;;2.40;;
71937;SDS011;59810;48.800;9.086;2022-09-16T09:48:08;6.50;;;2.50;;
71937;SDS011;59810;48.800;9.086;2022-09-16T09:50:39;6.22;;;2.80;;
71937;SDS011;59810;48.800;9.086;2022-09-16T09:55:37;8.90;;;2.95;;
71937;SDS011;59810;48.800;9.086;2022-09-16T10:00:47;8.87;;;2.93;;
71937;SDS011;59810;48.800;9.086;2022-09-16T10:03:14;7.03;;;2.60;;
71937;SDS011;59810;48.800;9.086;2022-09-16T10:05:44;5.90;;;2.60;;
71937;SDS011;59810;48.800;9.086;2022-09-16T10:10:36;8.50;;;3.30;;
71937;SDS011;59810;48.800;9.086;2022-09-16T10:13:10;5.97;;;2.60;;
71937;SDS011;59810;48.800;9.086;2022-09-16T10:15:39;7.00;;;2.80;;
71937;SDS011;59810;48.800;9.086;2022-09-16T10:18:10;7.88;;;2.97;;
71937;SDS011;59810;48.800;9.086;2022-09-16T10:20:41;6.63;;;2.15;;
71937;SDS011;59810;48.800;9.086;2022-09-16T10:23:15;5.97;;;2.13;;
71937;SDS011;59810;48.800;9.086;2022-09-16T10:25:47;5.93;;;2.10;;
71937;SDS011;59810;48.800;9.086;2022-09-16T10:28:26;7.38;;;2.17;;
71937;SDS011;59810;48.800;9.086;2022-09-16T10:30:55;7.53;;;2.60;;
71937;SDS011;59810;48.800;9.086;2022-09-16T10:33:27;6.72;;;2.60;;
71937;SDS011;59810;48.800;9.086;2022-09-16T10:35:54;9.27;;;2.60;;
71937;SDS011;59810;48.800;9.086;2022-09-16T10:38:23;7.75;;;2.63;;
71937;SDS011;59810;48.800;9.086;2022-09-16T10:40:54;7.35;;;2.35;;
71937;SDS011;59810;48.800;9.086;2022-09-16T10:43:25;6.32;;;2.40;;
71937;SDS011;59810;48.800;9.086;2022-09-16T10:45:53;6.55;;;2.90;;
71937;SDS011;59810;48.800;9.086;2022-09-16T10:48:20;5.83;;;2.50;;
71937;SDS011;59810;48.800;9.086;2022-09-16T10:53:21;7.68;;;2.67;;
71937;SDS011;59810;48.800;9.086;2022-09-16T10:56:16;5.38;;;2.22;;
71937;SDS011;59810;48.800;9.086;2022-09-16T10:59:07;5.60;;;2.22;;
71937;SDS011;59810;48.800;9.086;2022-09-16T11:04:52;7.10;;;1.95;;
71937;SDS011;59810;48.800;9.086;2022-09-16T11:24:35;6.50;;;2.05;;
71937;SDS011;59810;48.800;9.086;2022-09-16T11:32:29;8.02;;;1.80;;
71937;SDS011;59810;48.800;9.086;2022-09-16T11:38:06;4.47;;;1.58;;
71937;SDS011;59810;48.800;9.086;2022-09-16T11:49:10;5.03;;;1.70;;
71937;SDS011;59810;48.800;9.086;2022-09-16T11:51:54;10.15;;;1.80;;
71937;SDS011;59810;48.800;9.086;2022-09-16T11:57:08;7.03;;;1.43;;
71937;SDS011;59810;48.800;9.086;2022-09-16T12:02:23;7.35;;;1.80;;
71937;SDS011;59810;48.800;9.086;2022-09-16T12:09:59;4.70;;;1.93;;
71937;SDS011;59810;48.800;9.086;2022-09-16T12:12:36;4.18;;;1.27;;
71937;SDS011;59810;48.800;9.086;2022-09-16T12:15:24;5.32;;;1.42;;
71937;SDS011;59810;48.800;9.086;2022-09-16T12:17:57;4.93;;;1.45;;
71937;SDS011;59810;48.800;9.086;2022-09-16T12:20:34;5.20;;;1.50;;
71937;SDS011;59810;48.800;9.086;2022-09-16T12:28:14;4.03;;;1.25;;
71937;SDS011;59810;48.800;9.086;2022-09-16T12:30:47;6.55;;;1.63;;
71937;SDS011;59810;48.800;9.086;2022-09-16T12:33:26;4.07;;;1.30;;
71937;SDS011;59810;48.800;9.086;2022-09-16T12:35:58;5.43;;;1.40;;
71937;SDS011;59810;48.800;9.086;2022-09-16T12:38:31;5.32;;;1.25;;
71937;SDS011;59810;48.800;9.086;2022-09-16T12:46:04;5.50;;;1.20;;
71937;SDS011;59810;48.800;9.086;2022-09-16T12:57:06;4.43;;;1.20;;
71937;SDS011;59810;48.800;9.086;2022-09-16T13:02:24;7.90;;;1.52;;
71937;SDS011;59810;48.800;9.086;2022-09-16T13:04:54;5.38;;;1.40;;
71937;SDS011;59810;48.800;9.086;2022-09-16T13:07:27;4.03;;;1.17;;
71937;SDS011;59810;48.800;9.086;2022-09-16T13:10:00;8.50;;;1.43;;
71937;SDS011;59810;48.800;9.086;2022-09-16T13:12:30;5.45;;;1.52;;
71937;SDS011;59810;48.800;9.086;2022-09-16T13:14:57;7.47;;;1.70;;
71937;SDS011;59810;48.800;9.086;2022-09-16T13:17:32;6.00;;;1.50;;
71937;SDS011;59810;48.800;9.086;2022-09-16T13:27:38;3.90;;;1.20;;
71937;SDS011;59810;48.800;9.086;2022-09-16T13:32:36;6.28;;;1.60;;
71937;SDS011;59810;48.800;9.086;2022-09-16T13:37:42;5.57;;;1.20;;
71937;SDS011;59810;48.800;9.086;2022-09-16T13:40:17;4.10;;;1.50;;
71937;SDS011;59810;48.800;9.086;2022-09-16T13:42:45;7.90;;;1.42;;
71937;SDS011;59810;48.800;9.086;2022-09-16T13:48:11;4.47;;;1.30;;
71937;SDS011;59810;48.800;9.086;2022-09-16T13:50:44;4.13;;;1.40;;
71937;SDS011;59810;48.800;9.086;2022-09-16T13:53:26;4.15;;;1.25;;
71937;SDS011;59810;48.800;9.086;2022-09-16T13:55:58;3.33;;;1.27;;
71937;SDS011;59810;48.800;9.086;2022-09-16T13:59:29;4.90;;;1.27;;
71937;SDS011;59810;48.800;9.086;2022-09-16T14:09:51;4.18;;;1.30;;
71937;SDS011;59810;48.800;9.086;2022-09-16T14:15:23;4.27;;;1.10;;
71937;SDS011;59810;48.800;9.086;2022-09-16T14:17:51;6.40;;;1.27;;
71937;SDS011;59810;48.800;9.086;2022-09-16T14:20:22;6.78;;;1.60;;
71937;SDS011;59810;48.800;9.086;2022-09-16T14:23:02;9.57;;;2.28;;
71937;SDS011;59810;48.800;9.086;2022-09-16T14:25:31;4.85;;;1.52;;
71937;SDS011;59810;48.800;9.086;2022-09-16T14:31:15;4.80;;;1.30;;
71937;SDS011;59810;48.800;9.086;2022-09-16T14:33:38;5.57;;;1.92;;
71937;SDS011;59810;48.800;9.086;2022-09-16T14:36:11;7.07;;;1.20;;
71937;SDS011;59810;48.800;9.086;2022-09-16T14:38:44;4.75;;;1.55;;
71937;SDS011;59810;48.800;9.086;2022-09-16T14:41:17;5.03;;;1.30;;
71937;SDS011;59810;48.800;9.086;2022-09-16T14:43:48;3.90;;;1.20;;
71937;SDS011;59810;48.800;9.086;2022-09-16T14:46:14;3.95;;;1.30;;
71937;SDS011;59810;48.800;9.086;2022-09-16T14:48:41;6.28;;;1.63;;
71937;SDS011;59810;48.800;9.086;2022-09-16T14:51:09;4.47;;;1.23;;
71937;SDS011;59810;48.800;9.086;2022-09-16T14:53:51;3.53;;;1.23;;
71937;SDS011;59810;48.800;9.086;2022-09-16T14:56:19;4.95;;;1.45;;
71937;SDS011;59810;48.800;9.086;2022-09-16T14:58:45;4.07;;;1.30;;
71937;SDS011;59810;48.800;9.086;2022-09-16T15:01:14;4.90;;;1.50;;
71937;SDS011;59810;48.800;9.086;2022-09-16T15:03:49;5.82;;;1.50;;
71937;SDS011;59810;48.800;9.086;2022-09-16T15:06:28;3.15;;;1.10;;
71937;SDS011;59810;48.800;9.086;2022-09-16T15:09:02;6.53;;;1.45;;
71937;SDS011;59810;48.800;9.086;2022-09-16T15:11:35;5.88;;;1.50;;
71937;SDS011;59810;48.800;9.086;2022-09-16T15:14:11;5.23;;;1.47;;
71937;SDS011;59810;48.800;9.086;2022-09-16T15:16:53;5.28;;;1.40;;
71937;SDS011;59810;48.800;9.086;2022-09-16T15:19:23;6.27;;;1.40;;
71937;SDS011;59810;48.800;9.086;2022-09-16T15:21:51;3.95;;;1.45;;
71937;SDS011;59810;48.800;9.086;2022-09-16T15:24:19;4.50;;;1.27;;
71937;SDS011;59810;48.800;9.086;2022-09-16T15:26:48;3.42;;;1.13;;
71937;SDS011;59810;48.800;9.086;2022-09-16T15:31:43;6.10;;;1.38;;
71937;SDS011;59810;48.800;9.086;2022-09-16T15:39:25;3.30;;;1.10;;
71937;SDS011;59810;48.800;9.086;2022-09-16T15:44:41;6.43;;;1.50;;
71937;SDS011;59810;48.800;9.086;2022-09-16T15:47:15;4.75;;;1.40;;
71937;SDS011;59810;48.800;9.086;2022-09-16T15:49:52;6.72;;;1.60;;
71937;SDS011;59810;48.800;9.086;2022-09-16T15:52:22;5.50;;;1.27;;
71937;SDS011;59810;48.800;9.086;2022-09-16T15:54:53;9.67;;;2.27;;
71937;SDS011;59810;48.800;9.086;2022-09-16T16:02:32;5.57;;;1.40;;
71937;SDS011;59810;48.800;9.086;2022-09-16T16:05:08;4.35;;;1.20;;
71937;SDS011;59810;48.800;9.086;2022-09-16T16:07:37;5.30;;;1.20;;
71937;SDS011;59810;48.800;9.086;2022-09-16T16:10:16;4.53;;;1.38;;
71937;SDS011;59810;48.800;9.086;2022-09-16T16:12:43;5.18;;;1.30;;
71937;SDS011;59810;48.800;9.086;2022-09-16T16:15:12;3.85;;;1.30;;
71937;SDS011;59810;48.800;9.086;2022-09-16T16:17:49;6.18;;;1.30;;
71937;SDS011;59810;48.800;9.086;2022-09-16T16:20:19;4.50;;;1.20;;
71937;SDS011;59810;48.800;9.086;2022-09-16T16:22:48;4.65;;;1.50;;
71937;SDS011;59810;48.800;9.086;2022-09-16T16:25:16;4.40;;;1.20;;
71937;SDS011;59810;48.800;9.086;2022-09-16T16:27:41;5.90;;;1.27;;
71937;SDS011;59810;48.800;9.086;2022-09-16T16:30:07;5.53;;;1.20;;
71937;SDS011;59810;48.800;9.086;2022-09-16T16:32:33;7.10;;;1.63;;
71937;SDS011;59810;48.800;9.086;2022-09-16T16:35:03;5.95;;;1.13;;
71937;SDS011;59810;48.800;9.086;2022-09-16T16:37:29;4.27;;;1.37;;
71937;SDS011;59810;48.800;9.086;2022-09-16T16:39:55;5.65;;;1.33;;
71937;SDS011;59810;48.800;9.086;2022-09-16T16:42:23;4.78;;;1.30;;
71937;SDS011;59810;48.800;9.086;2022-09-16T16:44:52;7.40;;;1.38;;
71937;SDS011;59810;48.800;9.086;2022-09-16T16:47:21;4.83;;;1.20;;
71937;SDS011;59810;48.800;9.086;2022-09-16T16:49:47;4.68;;;0.90;;
71937;SDS011;59810;48.800;9.086;2022-09-16T16:52:14;4.63;;;1.05;;
71937;SDS011;59810;48.800;9.086;2022-09-16T16:54:39;3.67;;;1.00;;
71937;SDS011;59810;48.800;9.086;2022-09-16T16:57:07;3.22;;;1.15;;
71937;SDS011;59810;48.800;9.086;2022-09-16T16:59:33;3.95;;;1.10;;
71937;SDS011;59810;48.800;9.086;2022-09-16T17:01:58;6.10;;;1.10;;
71937;SDS011;59810;48.800;9.086;2022-09-16T17:04:42;3.10;;;1.00;;
71937;SDS011;59810;48.800;9.086;2022-09-16T17:07:08;4.87;;;1.03;;
71937;SDS011;59810;48.800;9.086;2022-09-16T17:09:34;4.22;;;1.40;;
71937;SDS011;59810;48.800;9.086;2022-09-16T17:12:00;2.43;;;0.87;;
71937;SDS011;59810;48.800;9.086;2022-09-16T17:14:28;4.47;;;1.02;;
71937;SDS011;59810;48.800;9.086;2022-09-16T17:16:57;5.40;;;1.20;;
71937;SDS011;59810;48.800;9.086;2022-09-16T17:19:23;3.33;;;0.80;;
71937;SDS011;59810;48.800;9.086;2022-09-16T17:21:49;3.13;;;0.88;;
71937;SDS011;59810;48.800;9.086;2022-09-16T17:24:18;2.90;;;0.80;;
71937;SDS011;59810;48.800;9.086;2022-09-16T17:26:45;5.28;;;0.80;;
71937;SDS011;59810;48.800;9.086;2022-09-16T17:29:14;6.97;;;0.88;;
71937;SDS011;59810;48.800;9.086;2022-09-16T17:31:40;6.37;;;1.00;;
71937;SDS011;59810;48.800;9.086;2022-09-16T17:34:07;3.38;;;0.85;;
71937;SDS011;59810;48.800;9.086;2022-09-16T17:36:38;3.92;;;1.15;;
71937;SDS011;59810;48.800;9.086;2022-09-16T17:39:11;3.42;;;0.90;;
71937;SDS011;59810;48.800;9.086;2022-09-16T17:41:42;3.20;;;0.82;;
71937;SDS011;59810;48.800;9.086;2022-09-16T17:44:09;3.63;;;0.80;;
71937;SDS011;59810;48.800;9.086;2022-09-16T17:46:36;5.88;;;0.85;;
71937;SDS011;59810;48.800;9.086;2022-09-16T17:49:06;7.65;;;1.20;;
71937;SDS011;59810;48.800;9.086;2022-09-16T17:51:36;4.55;;;0.90;;
71937;SDS011;59810;48.800;9.086;2022-09-16T17:54:04;3.95;;;1.00;;
71937;SDS011;59810;48.800;9.086;2022-09-16T17:56:30;5.03;;;1.23;;
71937;SDS011;59810;48.800;9.086;2022-09-16T17:58:56;3.33;;;0.90;;
71937;SDS011;59810;48.800;9.086;2022-09-16T18:01:22;5.30;;;1.40;;
71937;SDS011;59810;48.800;9.086;2022-09-16T18:03:50;3.22;;;1.33;;
71937;SDS011;59810;48.800;9.086;2022-09-16T18:06:30;4.77;;;1.10;;
71937;SDS011;59810;48.800;9.086;2022-09-16T18:08:59;2.92;;;1.00;;
71937;SDS011;59810;48.800;9.086;2022-09-16T18:11:26;4.68;;;1.13;;
71937;SDS011;59810;48.800;9.086;2022-09-16T18:13:55;6.80;;;1.07;;
71937;SDS011;59810;48.800;9.086;2022-09-16T18:16:21;6.18;;;1.17;;
71937;SDS011;59810;48.800;9.086;2022-09-16T18:18:52;3.33;;;1.13;;
71937;SDS011;59810;48.800;9.086;2022-09-16T18:21:19;3.47;;;1.10;;
71937;SDS011;59810;48.800;9.086;2022-09-16T18:23:51;6.25;;;1.08;;
71937;SDS011;59810;48.800;9.086;2022-09-16T18:26:18;5.07;;;1.10;;
71937;SDS011;59810;48.800;9.086;2022-09-16T18:28:44;3.22;;;1.02;;
71937;SDS011;59810;48.800;9.086;2022-09-16T18:31:13;4.37;;;1.00;;
71937;SDS011;59810;48.800;9.086;2022-09-16T18:33:43;2.38;;;0.80;;